sensor_id;sensor_type;location;lat;lon;timestamp;P1;durP1;ratioP1;P2;durP2;ratioP2
23328;SDS011;11836;51.050;3.716;2023-04-21T00:00:04;3.95;;;2.67;;
23328;SDS011;11836;51.050;3.716;2023-04-21T00:02:39;3.55;;;3.20;;
23328;SDS011;11836;51.050;3.716;2023-04-21T00:05:13;2.55;;;2.25;;
23328;SDS011;11836;51.050;3.716;2023-04-21T00:07:39;2.22;;;1.95;;
23328;SDS011;11836;51.050;3.716;2023-04-21T00:10:09;2.30;;;2.10;;
23328;SDS011;11836;51.050;3.716;2023-04-21T00:12:36;2.47;;;2.28;;
23328;SDS011;11836;51.050;3.716;2023-04-21T00:15:02;2.53;;;2.10;;
23328;SDS011;11836;51.050;3.716;2023-04-21T00:17:29;3.30;;;2.42;;
23328;SDS011;11836;51.050;3.716;2023-04-21T00:19:55;2.47;;;2.20;;
23328;SDS011;11836;51.050;3.716;2023-04-21T00:22:22;2.08;;;1.88;;
23328;SDS011;11836;51.050;3.716;2023-04-21T00:24:48;2.70;;;2.50;;
23328;SDS011;11836;51.050;3.716;2023-04-21T00:27:13;2.58;;;2.38;;
23328;SDS011;11836;51.050;3.716;2023-04-21T00:29:40;2.22;;;1.98;;
23328;SDS011;11836;51.050;3.716;2023-04-21T00:32:06;2.33;;;1.95;;
23328;SDS011;11836;51.050;3.716;2023-04-21T00:34:35;2.53;;;2.17;;
23328;SDS011;11836;51.050;3.716;2023-04-21T00:37:01;3.13;;;2.58;;
23328;SDS011;11836;51.050;3.716;2023-04-21T00:39:30;3.53;;;2.45;;
23328;SDS011;11836;51.050;3.716;2023-04-21T00:42:00;2.80;;;2.50;;
23328;SDS011;11836;51.050;3.716;2023-04-21T00:44:26;2.88;;;2.40;;
23328;SDS011;11836;51.050;3.716;2023-04-21T00:46:51;2.30;;;2.10;;
23328;SDS011;11836;51.050;3.716;2023-04-21T00:49:17;2.75;;;2.03;;
23328;SDS011;11836;51.050;3.716;2023-04-21T00:51:43;2.55;;;2.35;;
23328;SDS011;11836;51.050;3.716;2023-04-21T00:54:09;2.38;;;2.00;;
23328;SDS011;11836;51.050;3.716;2023-04-21T00:56:36;3.33;;;2.65;;
23328;SDS011;11836;51.050;3.716;2023-04-21T00:59:02;2.70;;;2.35;;
23328;SDS011;11836;51.050;3.716;2023-04-21T01:01:29;3.00;;;2.40;;
23328;SDS011;11836;51.050;3.716;2023-04-21T01:04:06;2.80;;;2.17;;
23328;SDS011;11836;51.050;3.716;2023-04-21T01:06:34;2.47;;;2.15;;
23328;SDS011;11836;51.050;3.716;2023-04-21T01:09:00;2.40;;;2.17;;
23328;SDS011;11836;51.050;3.716;2023-04-21T01:11:28;2.90;;;2.17;;
23328;SDS011;11836;51.050;3.716;2023-04-21T01:13:56;2.90;;;2.60;;
23328;SDS011;11836;51.050;3.716;2023-04-21T01:16:22;2.78;;;2.40;;
23328;SDS011;11836;51.050;3.716;2023-04-21T01:18:48;2.75;;;2.45;;
23328;SDS011;11836;51.050;3.716;2023-04-21T01:21:16;4.43;;;2.40;;
23328;SDS011;11836;51.050;3.716;2023-04-21T01:23:43;3.55;;;2.40;;
23328;SDS011;11836;51.050;3.716;2023-04-21T01:26:09;3.97;;;2.45;;
23328;SDS011;11836;51.050;3.716;2023-04-21T01:28:38;2.55;;;2.22;;
23328;SDS011;11836;51.050;3.716;2023-04-21T01:31:08;3.60;;;2.60;;
23328;SDS011;11836;51.050;3.716;2023-04-21T01:33:37;3.72;;;3.30;;
23328;SDS011;11836;51.050;3.716;2023-04-21T01:36:02;3.40;;;2.72;;
23328;SDS011;11836;51.050;3.716;2023-04-21T01:38:28;3.47;;;2.80;;
23328;SDS011;11836;51.050;3.716;2023-04-21T01:40:54;4.03;;;2.70;;
23328;SDS011;11836;51.050;3.716;2023-04-21T01:43:21;3.95;;;2.75;;
23328;SDS011;11836;51.050;3.716;2023-04-21T01:45:49;3.50;;;2.90;;
23328;SDS011;11836;51.050;3.716;2023-04-21T01:48:16;5.13;;;4.15;;
23328;SDS011;11836;51.050;3.716;2023-04-21T01:50:42;3.10;;;2.80;;
23328;SDS011;11836;51.050;3.716;2023-04-21T01:53:09;3.65;;;2.95;;
23328;SDS011;11836;51.050;3.716;2023-04-21T01:55:34;5.60;;;3.40;;
23328;SDS011;11836;51.050;3.716;2023-04-21T01:58:02;2.55;;;2.35;;
23328;SDS011;11836;51.050;3.716;2023-04-21T02:00:28;2.97;;;2.47;;
23328;SDS011;11836;51.050;3.716;2023-04-21T02:02:54;2.50;;;2.30;;
23328;SDS011;11836;51.050;3.716;2023-04-21T02:05:20;2.90;;;2.60;;
23328;SDS011;11836;51.050;3.716;2023-04-21T02:07:45;3.20;;;2.33;;
23328;SDS011;11836;51.050;3.716;2023-04-21T02:10:11;2.55;;;2.20;;
23328;SDS011;11836;51.050;3.716;2023-04-21T02:12:37;2.88;;;2.47;;
23328;SDS011;11836;51.050;3.716;2023-04-21T02:15:03;2.58;;;2.38;;
23328;SDS011;11836;51.050;3.716;2023-04-21T02:17:32;2.58;;;2.38;;
23328;SDS011;11836;51.050;3.716;2023-04-21T02:19:58;3.25;;;2.75;;
23328;SDS011;11836;51.050;3.716;2023-04-21T02:22:24;3.08;;;2.78;;
23328;SDS011;11836;51.050;3.716;2023-04-21T02:24:49;3.03;;;2.40;;
23328;SDS011;11836;51.050;3.716;2023-04-21T02:27:15;2.80;;;2.60;;
23328;SDS011;11836;51.050;3.716;2023-04-21T02:29:41;4.07;;;3.40;;
23328;SDS011;11836;51.050;3.716;2023-04-21T02:32:06;2.67;;;2.30;;
23328;SDS011;11836;51.050;3.716;2023-04-21T02:34:33;2.55;;;2.35;;
23328;SDS011;11836;51.050;3.716;2023-04-21T02:37:01;2.33;;;2.13;;
23328;SDS011;11836;51.050;3.716;2023-04-21T02:39:27;3.53;;;2.63;;
23328;SDS011;11836;51.050;3.716;2023-04-21T02:41:53;3.38;;;2.83;;
23328;SDS011;11836;51.050;3.716;2023-04-21T02:44:18;4.82;;;3.50;;
23328;SDS011;11836;51.050;3.716;2023-04-21T02:46:44;3.83;;;2.92;;
23328;SDS011;11836;51.050;3.716;2023-04-21T02:49:10;3.03;;;2.50;;
23328;SDS011;11836;51.050;3.716;2023-04-21T02:51:35;2.58;;;2.38;;
23328;SDS011;11836;51.050;3.716;2023-04-21T02:54:01;2.42;;;2.22;;
23328;SDS011;11836;51.050;3.716;2023-04-21T02:56:27;4.85;;;2.72;;
23328;SDS011;11836;51.050;3.716;2023-04-21T02:58:53;2.53;;;2.20;;
23328;SDS011;11836;51.050;3.716;2023-04-21T03:01:18;3.13;;;2.28;;
23328;SDS011;11836;51.050;3.716;2023-04-21T03:03:44;2.83;;;2.17;;
23328;SDS011;11836;51.050;3.716;2023-04-21T03:06:13;2.88;;;2.20;;
23328;SDS011;11836;51.050;3.716;2023-04-21T03:08:38;2.45;;;2.20;;
23328;SDS011;11836;51.050;3.716;2023-04-21T03:11:04;3.03;;;2.72;;
23328;SDS011;11836;51.050;3.716;2023-04-21T03:13:30;3.38;;;2.65;;
23328;SDS011;11836;51.050;3.716;2023-04-21T03:15:59;3.53;;;3.20;;
23328;SDS011;11836;51.050;3.716;2023-04-21T03:18:24;4.25;;;2.90;;
23328;SDS011;11836;51.050;3.716;2023-04-21T03:20:58;3.03;;;2.55;;
23328;SDS011;11836;51.050;3.716;2023-04-21T03:23:25;4.25;;;2.92;;
23328;SDS011;11836;51.050;3.716;2023-04-21T03:25:53;3.00;;;2.42;;
23328;SDS011;11836;51.050;3.716;2023-04-21T03:28:19;3.20;;;2.83;;
23328;SDS011;11836;51.050;3.716;2023-04-21T03:30:50;2.80;;;2.50;;
23328;SDS011;11836;51.050;3.716;2023-04-21T03:33:15;3.53;;;2.53;;
23328;SDS011;11836;51.050;3.716;2023-04-21T03:35:47;3.40;;;3.03;;
23328;SDS011;11836;51.050;3.716;2023-04-21T03:38:15;3.10;;;2.80;;
23328;SDS011;11836;51.050;3.716;2023-04-21T03:40:41;2.85;;;2.55;;
23328;SDS011;11836;51.050;3.716;2023-04-21T03:43:07;3.60;;;3.15;;
23328;SDS011;11836;51.050;3.716;2023-04-21T03:45:35;3.55;;;2.80;;
23328;SDS011;11836;51.050;3.716;2023-04-21T03:48:03;2.58;;;2.35;;
23328;SDS011;11836;51.050;3.716;2023-04-21T03:50:29;2.85;;;2.35;;
23328;SDS011;11836;51.050;3.716;2023-04-21T03:52:55;2.47;;;2.25;;
23328;SDS011;11836;51.050;3.716;2023-04-21T03:55:21;2.58;;;2.33;;
23328;SDS011;11836;51.050;3.716;2023-04-21T03:57:46;3.13;;;2.70;;
23328;SDS011;11836;51.050;3.716;2023-04-21T04:00:12;3.35;;;2.85;;
23328;SDS011;11836;51.050;3.716;2023-04-21T04:02:38;5.80;;;3.45;;
23328;SDS011;11836;51.050;3.716;2023-04-21T04:05:04;2.97;;;2.67;;
23328;SDS011;11836;51.050;3.716;2023-04-21T04:07:31;3.88;;;2.90;;
23328;SDS011;11836;51.050;3.716;2023-04-21T04:09:57;3.75;;;3.40;;
23328;SDS011;11836;51.050;3.716;2023-04-21T04:12:23;3.05;;;2.75;;
23328;SDS011;11836;51.050;3.716;2023-04-21T04:14:49;3.10;;;2.72;;
23328;SDS011;11836;51.050;3.716;2023-04-21T04:17:14;3.67;;;3.33;;
23328;SDS011;11836;51.050;3.716;2023-04-21T04:19:40;2.90;;;2.22;;
23328;SDS011;11836;51.050;3.716;2023-04-21T04:22:06;2.80;;;2.30;;
23328;SDS011;11836;51.050;3.716;2023-04-21T04:24:32;2.72;;;2.30;;
23328;SDS011;11836;51.050;3.716;2023-04-21T04:26:57;2.63;;;2.42;;
23328;SDS011;11836;51.050;3.716;2023-04-21T04:29:26;3.47;;;3.15;;
23328;SDS011;11836;51.050;3.716;2023-04-21T04:31:51;4.60;;;3.72;;
23328;SDS011;11836;51.050;3.716;2023-04-21T04:34:17;3.88;;;3.00;;
23328;SDS011;11836;51.050;3.716;2023-04-21T04:36:43;3.08;;;2.58;;
23328;SDS011;11836;51.050;3.716;2023-04-21T04:39:16;3.13;;;2.83;;
23328;SDS011;11836;51.050;3.716;2023-04-21T04:41:41;3.35;;;3.05;;
23328;SDS011;11836;51.050;3.716;2023-04-21T04:44:07;2.92;;;2.60;;
23328;SDS011;11836;51.050;3.716;2023-04-21T04:46:33;2.60;;;2.40;;
23328;SDS011;11836;51.050;3.716;2023-04-21T04:48:59;3.08;;;2.70;;
23328;SDS011;11836;51.050;3.716;2023-04-21T04:51:28;2.75;;;2.50;;
23328;SDS011;11836;51.050;3.716;2023-04-21T04:53:54;4.20;;;3.00;;
23328;SDS011;11836;51.050;3.716;2023-04-21T04:56:20;3.70;;;2.80;;
23328;SDS011;11836;51.050;3.716;2023-04-21T04:58:49;6.38;;;3.22;;
23328;SDS011;11836;51.050;3.716;2023-04-21T05:01:18;3.60;;;3.03;;
23328;SDS011;11836;51.050;3.716;2023-04-21T05:03:44;3.28;;;2.85;;
23328;SDS011;11836;51.050;3.716;2023-04-21T05:06:10;2.92;;;2.30;;
23328;SDS011;11836;51.050;3.716;2023-04-21T05:08:37;3.05;;;2.75;;
23328;SDS011;11836;51.050;3.716;2023-04-21T05:11:05;4.10;;;2.50;;
23328;SDS011;11836;51.050;3.716;2023-04-21T05:13:34;3.20;;;2.60;;
23328;SDS011;11836;51.050;3.716;2023-04-21T05:16:12;3.42;;;3.13;;
23328;SDS011;11836;51.050;3.716;2023-04-21T05:18:44;2.80;;;2.53;;
23328;SDS011;11836;51.050;3.716;2023-04-21T05:21:10;4.85;;;4.03;;
23328;SDS011;11836;51.050;3.716;2023-04-21T05:23:59;4.22;;;3.38;;
23328;SDS011;11836;51.050;3.716;2023-04-21T05:26:31;3.03;;;2.58;;
23328;SDS011;11836;51.050;3.716;2023-04-21T05:28:57;3.17;;;2.60;;
23328;SDS011;11836;51.050;3.716;2023-04-21T05:31:25;5.15;;;4.38;;
23328;SDS011;11836;51.050;3.716;2023-04-21T05:33:51;4.50;;;4.10;;
23328;SDS011;11836;51.050;3.716;2023-04-21T05:36:17;4.13;;;3.72;;
23328;SDS011;11836;51.050;3.716;2023-04-21T05:38:44;5.57;;;3.33;;
23328;SDS011;11836;51.050;3.716;2023-04-21T05:41:10;5.13;;;3.03;;
23328;SDS011;11836;51.050;3.716;2023-04-21T05:43:36;7.72;;;3.72;;
23328;SDS011;11836;51.050;3.716;2023-04-21T05:46:07;6.30;;;4.90;;
23328;SDS011;11836;51.050;3.716;2023-04-21T05:48:42;6.50;;;5.55;;
23328;SDS011;11836;51.050;3.716;2023-04-21T05:51:11;7.72;;;6.43;;
23328;SDS011;11836;51.050;3.716;2023-04-21T05:53:45;10.23;;;7.65;;
23328;SDS011;11836;51.050;3.716;2023-04-21T05:56:11;10.27;;;9.20;;
23328;SDS011;11836;51.050;3.716;2023-04-21T05:58:50;10.70;;;9.23;;
23328;SDS011;11836;51.050;3.716;2023-04-21T06:01:28;9.50;;;8.50;;
23328;SDS011;11836;51.050;3.716;2023-04-21T06:04:51;10.38;;;7.97;;
23328;SDS011;11836;51.050;3.716;2023-04-21T06:07:17;9.45;;;6.88;;
23328;SDS011;11836;51.050;3.716;2023-04-21T06:16:11;5.90;;;5.30;;
23328;SDS011;11836;51.050;3.716;2023-04-21T06:18:53;5.07;;;4.18;;
23328;SDS011;11836;51.050;3.716;2023-04-21T06:21:35;7.95;;;6.38;;
23328;SDS011;11836;51.050;3.716;2023-04-21T06:24:00;6.82;;;5.35;;
23328;SDS011;11836;51.050;3.716;2023-04-21T06:26:26;5.60;;;5.00;;
23328;SDS011;11836;51.050;3.716;2023-04-21T06:28:53;4.80;;;4.32;;
23328;SDS011;11836;51.050;3.716;2023-04-21T06:31:25;6.50;;;5.55;;
23328;SDS011;11836;51.050;3.716;2023-04-21T06:33:51;10.45;;;7.13;;
23328;SDS011;11836;51.050;3.716;2023-04-21T06:36:16;9.43;;;7.03;;
23328;SDS011;11836;51.050;3.716;2023-04-21T06:38:43;8.20;;;7.05;;
23328;SDS011;11836;51.050;3.716;2023-04-21T06:41:21;8.48;;;5.68;;
23328;SDS011;11836;51.050;3.716;2023-04-21T06:43:46;6.20;;;5.40;;
23328;SDS011;11836;51.050;3.716;2023-04-21T06:46:16;4.50;;;3.72;;
23328;SDS011;11836;51.050;3.716;2023-04-21T06:48:49;4.63;;;3.80;;
23328;SDS011;11836;51.050;3.716;2023-04-21T06:51:24;5.53;;;4.95;;
23328;SDS011;11836;51.050;3.716;2023-04-21T06:53:50;6.75;;;3.70;;
23328;SDS011;11836;51.050;3.716;2023-04-21T06:56:16;5.15;;;4.60;;
23328;SDS011;11836;51.050;3.716;2023-04-21T06:58:42;6.97;;;5.30;;
23328;SDS011;11836;51.050;3.716;2023-04-21T07:01:07;7.55;;;4.70;;
23328;SDS011;11836;51.050;3.716;2023-04-21T07:09:47;6.10;;;5.07;;
23328;SDS011;11836;51.050;3.716;2023-04-21T07:12:13;5.00;;;4.45;;
23328;SDS011;11836;51.050;3.716;2023-04-21T07:14:39;4.40;;;4.00;;
23328;SDS011;11836;51.050;3.716;2023-04-21T07:17:11;5.57;;;4.95;;
23328;SDS011;11836;51.050;3.716;2023-04-21T07:19:37;6.68;;;5.53;;
23328;SDS011;11836;51.050;3.716;2023-04-21T07:22:03;5.53;;;4.90;;
23328;SDS011;11836;51.050;3.716;2023-04-21T07:24:30;5.00;;;4.50;;
23328;SDS011;11836;51.050;3.716;2023-04-21T07:26:58;6.18;;;5.05;;
23328;SDS011;11836;51.050;3.716;2023-04-21T07:29:30;5.35;;;4.40;;
23328;SDS011;11836;51.050;3.716;2023-04-21T07:31:55;4.78;;;4.25;;
23328;SDS011;11836;51.050;3.716;2023-04-21T07:34:31;5.93;;;4.07;;
23328;SDS011;11836;51.050;3.716;2023-04-21T07:36:57;5.38;;;4.15;;
23328;SDS011;11836;51.050;3.716;2023-04-21T07:39:32;5.15;;;3.75;;
23328;SDS011;11836;51.050;3.716;2023-04-21T07:41:57;3.65;;;3.08;;
23328;SDS011;11836;51.050;3.716;2023-04-21T07:44:23;3.25;;;2.55;;
23328;SDS011;11836;51.050;3.716;2023-04-21T07:46:49;3.53;;;2.53;;
23328;SDS011;11836;51.050;3.716;2023-04-21T07:49:14;6.47;;;2.90;;
23328;SDS011;11836;51.050;3.716;2023-04-21T07:51:40;3.40;;;2.72;;
23328;SDS011;11836;51.050;3.716;2023-04-21T07:54:06;2.78;;;2.47;;
23328;SDS011;11836;51.050;3.716;2023-04-21T07:56:33;3.38;;;2.88;;
23328;SDS011;11836;51.050;3.716;2023-04-21T07:59:05;4.13;;;2.58;;
23328;SDS011;11836;51.050;3.716;2023-04-21T08:04:35;4.60;;;2.40;;
23328;SDS011;11836;51.050;3.716;2023-04-21T08:07:03;2.65;;;2.17;;
23328;SDS011;11836;51.050;3.716;2023-04-21T08:09:28;4.53;;;2.60;;
23328;SDS011;11836;51.050;3.716;2023-04-21T08:11:54;3.08;;;2.20;;
23328;SDS011;11836;51.050;3.716;2023-04-21T08:14:21;4.32;;;2.20;;
23328;SDS011;11836;51.050;3.716;2023-04-21T08:16:47;7.18;;;2.25;;
23328;SDS011;11836;51.050;3.716;2023-04-21T08:19:13;5.22;;;2.17;;
23328;SDS011;11836;51.050;3.716;2023-04-21T08:21:48;2.83;;;2.17;;
23328;SDS011;11836;51.050;3.716;2023-04-21T08:24:21;2.97;;;2.20;;
23328;SDS011;11836;51.050;3.716;2023-04-21T08:26:51;3.58;;;1.83;;
23328;SDS011;11836;51.050;3.716;2023-04-21T08:31:45;2.72;;;2.20;;
23328;SDS011;11836;51.050;3.716;2023-04-21T08:34:32;4.35;;;2.00;;
23328;SDS011;11836;51.050;3.716;2023-04-21T08:37:00;2.70;;;2.30;;
23328;SDS011;11836;51.050;3.716;2023-04-21T08:39:25;2.13;;;1.90;;
23328;SDS011;11836;51.050;3.716;2023-04-21T08:41:51;2.33;;;2.13;;
23328;SDS011;11836;51.050;3.716;2023-04-21T08:44:19;3.28;;;2.13;;
23328;SDS011;11836;51.050;3.716;2023-04-21T08:46:45;3.90;;;2.20;;
23328;SDS011;11836;51.050;3.716;2023-04-21T08:49:13;4.55;;;1.95;;
23328;SDS011;11836;51.050;3.716;2023-04-21T08:51:45;3.63;;;2.08;;
23328;SDS011;11836;51.050;3.716;2023-04-21T08:54:16;2.20;;;2.00;;
23328;SDS011;11836;51.050;3.716;2023-04-21T08:56:41;2.10;;;1.90;;
23328;SDS011;11836;51.050;3.716;2023-04-21T08:59:10;3.17;;;1.83;;
23328;SDS011;11836;51.050;3.716;2023-04-21T09:04:53;3.72;;;2.00;;
23328;SDS011;11836;51.050;3.716;2023-04-21T09:07:32;4.45;;;1.75;;
23328;SDS011;11836;51.050;3.716;2023-04-21T09:10:00;2.60;;;1.70;;
23328;SDS011;11836;51.050;3.716;2023-04-21T09:12:32;2.10;;;1.90;;
23328;SDS011;11836;51.050;3.716;2023-04-21T09:15:04;2.22;;;1.92;;
23328;SDS011;11836;51.050;3.716;2023-04-21T09:17:39;2.25;;;2.00;;
23328;SDS011;11836;51.050;3.716;2023-04-21T09:20:12;2.40;;;2.20;;
23328;SDS011;11836;51.050;3.716;2023-04-21T09:22:42;2.22;;;2.00;;
23328;SDS011;11836;51.050;3.716;2023-04-21T09:25:14;2.20;;;2.00;;
23328;SDS011;11836;51.050;3.716;2023-04-21T09:27:49;2.40;;;2.10;;
23328;SDS011;11836;51.050;3.716;2023-04-21T09:30:18;1.83;;;1.73;;
23328;SDS011;11836;51.050;3.716;2023-04-21T09:32:44;2.22;;;1.90;;
23328;SDS011;11836;51.050;3.716;2023-04-21T09:35:10;2.33;;;2.03;;
23328;SDS011;11836;51.050;3.716;2023-04-21T09:37:37;2.00;;;1.80;;
23328;SDS011;11836;51.050;3.716;2023-04-21T09:40:04;2.08;;;1.70;;
23328;SDS011;11836;51.050;3.716;2023-04-21T09:42:36;2.35;;;2.10;;
23328;SDS011;11836;51.050;3.716;2023-04-21T09:45:02;2.20;;;1.80;;
23328;SDS011;11836;51.050;3.716;2023-04-21T09:47:28;1.95;;;1.85;;
23328;SDS011;11836;51.050;3.716;2023-04-21T09:49:57;4.00;;;2.17;;
23328;SDS011;11836;51.050;3.716;2023-04-21T09:52:24;3.25;;;2.20;;
23328;SDS011;11836;51.050;3.716;2023-04-21T09:54:56;2.20;;;2.00;;
23328;SDS011;11836;51.050;3.716;2023-04-21T09:57:28;2.28;;;1.83;;
23328;SDS011;11836;51.050;3.716;2023-04-21T10:00:00;2.25;;;2.05;;
23328;SDS011;11836;51.050;3.716;2023-04-21T10:02:33;1.92;;;1.75;;
23328;SDS011;11836;51.050;3.716;2023-04-21T10:05:02;3.28;;;1.55;;
23328;SDS011;11836;51.050;3.716;2023-04-21T10:07:30;1.85;;;1.75;;
23328;SDS011;11836;51.050;3.716;2023-04-21T10:09:56;3.42;;;2.05;;
23328;SDS011;11836;51.050;3.716;2023-04-21T10:12:23;2.85;;;1.80;;
23328;SDS011;11836;51.050;3.716;2023-04-21T10:14:54;2.42;;;2.10;;
23328;SDS011;11836;51.050;3.716;2023-04-21T10:17:22;2.53;;;1.90;;
23328;SDS011;11836;51.050;3.716;2023-04-21T10:19:50;3.90;;;2.40;;
23328;SDS011;11836;51.050;3.716;2023-04-21T10:22:50;2.33;;;2.10;;
23328;SDS011;11836;51.050;3.716;2023-04-21T10:25:09;4.72;;;2.30;;
23328;SDS011;11836;51.050;3.716;2023-04-21T10:27:36;4.85;;;2.33;;
23328;SDS011;11836;51.050;3.716;2023-04-21T10:30:20;4.03;;;2.30;;
23328;SDS011;11836;51.050;3.716;2023-04-21T10:32:47;2.80;;;2.13;;
23328;SDS011;11836;51.050;3.716;2023-04-21T10:35:56;3.17;;;1.92;;
23328;SDS011;11836;51.050;3.716;2023-04-21T10:39:02;3.58;;;1.90;;
23328;SDS011;11836;51.050;3.716;2023-04-21T10:41:25;4.00;;;2.20;;
23328;SDS011;11836;51.050;3.716;2023-04-21T10:44:10;3.97;;;3.15;;
23328;SDS011;11836;51.050;3.716;2023-04-21T10:46:38;4.75;;;2.70;;
23328;SDS011;11836;51.050;3.716;2023-04-21T10:54:22;3.15;;;2.55;;
23328;SDS011;11836;51.050;3.716;2023-04-21T10:57:08;2.00;;;1.80;;
23328;SDS011;11836;51.050;3.716;2023-04-21T10:59:40;1.70;;;1.60;;
23328;SDS011;11836;51.050;3.716;2023-04-21T11:02:06;3.65;;;2.78;;
23328;SDS011;11836;51.050;3.716;2023-04-21T11:04:37;3.58;;;2.50;;
23328;SDS011;11836;51.050;3.716;2023-04-21T11:07:13;2.53;;;2.25;;
23328;SDS011;11836;51.050;3.716;2023-04-21T11:09:43;2.92;;;2.63;;
23328;SDS011;11836;51.050;3.716;2023-04-21T11:12:12;2.90;;;2.58;;
23328;SDS011;11836;51.050;3.716;2023-04-21T11:14:40;4.20;;;2.80;;
23328;SDS011;11836;51.050;3.716;2023-04-21T11:17:11;3.40;;;3.00;;
23328;SDS011;11836;51.050;3.716;2023-04-21T11:19:38;4.60;;;2.05;;
23328;SDS011;11836;51.050;3.716;2023-04-21T11:22:18;3.72;;;2.10;;
23328;SDS011;11836;51.050;3.716;2023-04-21T11:24:46;3.10;;;2.38;;
23328;SDS011;11836;51.050;3.716;2023-04-21T11:27:15;2.90;;;2.60;;
23328;SDS011;11836;51.050;3.716;2023-04-21T11:29:43;2.80;;;2.05;;
23328;SDS011;11836;51.050;3.716;2023-04-21T11:32:10;7.47;;;3.38;;
23328;SDS011;11836;51.050;3.716;2023-04-21T11:34:37;5.38;;;2.65;;
23328;SDS011;11836;51.050;3.716;2023-04-21T11:37:02;3.83;;;2.42;;
23328;SDS011;11836;51.050;3.716;2023-04-21T11:39:28;3.67;;;2.28;;
23328;SDS011;11836;51.050;3.716;2023-04-21T11:41:54;5.78;;;3.38;;
23328;SDS011;11836;51.050;3.716;2023-04-21T11:44:40;3.97;;;3.03;;
23328;SDS011;11836;51.050;3.716;2023-04-21T11:49:54;7.10;;;2.70;;
23328;SDS011;11836;51.050;3.716;2023-04-21T11:55:10;4.18;;;2.17;;
23328;SDS011;11836;51.050;3.716;2023-04-21T11:57:39;2.72;;;2.17;;
23328;SDS011;11836;51.050;3.716;2023-04-21T12:00:06;2.80;;;1.98;;
23328;SDS011;11836;51.050;3.716;2023-04-21T12:05:02;3.03;;;2.20;;
23328;SDS011;11836;51.050;3.716;2023-04-21T12:07:54;2.63;;;1.70;;
23328;SDS011;11836;51.050;3.716;2023-04-21T12:10:20;2.70;;;1.90;;
23328;SDS011;11836;51.050;3.716;2023-04-21T12:12:46;2.90;;;2.55;;
23328;SDS011;11836;51.050;3.716;2023-04-21T12:15:21;4.53;;;2.42;;
23328;SDS011;11836;51.050;3.716;2023-04-21T12:17:53;4.72;;;2.50;;
23328;SDS011;11836;51.050;3.716;2023-04-21T12:20:20;4.65;;;3.30;;
23328;SDS011;11836;51.050;3.716;2023-04-21T12:22:48;3.80;;;2.55;;
23328;SDS011;11836;51.050;3.716;2023-04-21T12:25:14;4.03;;;3.17;;
23328;SDS011;11836;51.050;3.716;2023-04-21T12:27:49;4.35;;;3.00;;
23328;SDS011;11836;51.050;3.716;2023-04-21T12:30:16;7.53;;;2.92;;
23328;SDS011;11836;51.050;3.716;2023-04-21T12:32:42;5.07;;;3.10;;
23328;SDS011;11836;51.050;3.716;2023-04-21T12:35:08;3.85;;;2.53;;
23328;SDS011;11836;51.050;3.716;2023-04-21T12:37:35;3.38;;;2.25;;
23328;SDS011;11836;51.050;3.716;2023-04-21T12:40:01;2.72;;;2.10;;
23328;SDS011;11836;51.050;3.716;2023-04-21T12:42:27;2.88;;;1.80;;
23328;SDS011;11836;51.050;3.716;2023-04-21T12:44:53;2.00;;;1.55;;
23328;SDS011;11836;51.050;3.716;2023-04-21T12:47:19;1.83;;;1.55;;
23328;SDS011;11836;51.050;3.716;2023-04-21T12:49:44;2.38;;;1.60;;
23328;SDS011;11836;51.050;3.716;2023-04-21T12:52:10;2.05;;;1.67;;
23328;SDS011;11836;51.050;3.716;2023-04-21T12:54:36;2.20;;;2.00;;
23328;SDS011;11836;51.050;3.716;2023-04-21T12:57:01;2.92;;;1.90;;
23328;SDS011;11836;51.050;3.716;2023-04-21T12:59:27;3.38;;;1.85;;
23328;SDS011;11836;51.050;3.716;2023-04-21T13:01:53;3.15;;;2.63;;
23328;SDS011;11836;51.050;3.716;2023-04-21T13:04:18;2.50;;;1.98;;
23328;SDS011;11836;51.050;3.716;2023-04-21T13:06:47;3.22;;;2.75;;
23328;SDS011;11836;51.050;3.716;2023-04-21T13:09:13;3.35;;;2.97;;
23328;SDS011;11836;51.050;3.716;2023-04-21T13:11:38;4.65;;;2.85;;
23328;SDS011;11836;51.050;3.716;2023-04-21T13:14:04;2.55;;;2.35;;
23328;SDS011;11836;51.050;3.716;2023-04-21T13:16:30;3.22;;;2.60;;
23328;SDS011;11836;51.050;3.716;2023-04-21T13:18:56;4.80;;;3.38;;
23328;SDS011;11836;51.050;3.716;2023-04-21T13:21:22;4.55;;;3.63;;
23328;SDS011;11836;51.050;3.716;2023-04-21T13:23:48;5.32;;;3.63;;
23328;SDS011;11836;51.050;3.716;2023-04-21T13:26:13;5.05;;;3.28;;
23328;SDS011;11836;51.050;3.716;2023-04-21T13:28:40;4.07;;;3.47;;
23328;SDS011;11836;51.050;3.716;2023-04-21T13:31:05;4.57;;;3.60;;
23328;SDS011;11836;51.050;3.716;2023-04-21T13:33:31;7.82;;;3.85;;
23328;SDS011;11836;51.050;3.716;2023-04-21T13:35:59;5.00;;;3.47;;
23328;SDS011;11836;51.050;3.716;2023-04-21T13:38:26;6.10;;;3.65;;
23328;SDS011;11836;51.050;3.716;2023-04-21T13:40:52;6.93;;;3.13;;
23328;SDS011;11836;51.050;3.716;2023-04-21T13:43:18;4.70;;;3.20;;
23328;SDS011;11836;51.050;3.716;2023-04-21T13:45:43;7.40;;;3.95;;
23328;SDS011;11836;51.050;3.716;2023-04-21T13:48:12;5.70;;;3.75;;
23328;SDS011;11836;51.050;3.716;2023-04-21T13:50:37;4.95;;;3.00;;
23328;SDS011;11836;51.050;3.716;2023-04-21T13:53:03;5.35;;;3.47;;
23328;SDS011;11836;51.050;3.716;2023-04-21T13:55:29;3.20;;;2.50;;
23328;SDS011;11836;51.050;3.716;2023-04-21T13:57:55;6.28;;;3.60;;
23328;SDS011;11836;51.050;3.716;2023-04-21T14:00:22;4.05;;;3.63;;
23328;SDS011;11836;51.050;3.716;2023-04-21T14:02:49;3.10;;;2.55;;
23328;SDS011;11836;51.050;3.716;2023-04-21T14:05:15;3.20;;;2.17;;
23328;SDS011;11836;51.050;3.716;2023-04-21T14:07:41;3.72;;;2.83;;
23328;SDS011;11836;51.050;3.716;2023-04-21T14:10:07;4.88;;;3.00;;
23328;SDS011;11836;51.050;3.716;2023-04-21T14:12:33;4.97;;;3.88;;
23328;SDS011;11836;51.050;3.716;2023-04-21T14:14:59;5.32;;;2.70;;
23328;SDS011;11836;51.050;3.716;2023-04-21T14:17:25;5.10;;;2.90;;
23328;SDS011;11836;51.050;3.716;2023-04-21T14:19:51;3.70;;;3.10;;
23328;SDS011;11836;51.050;3.716;2023-04-21T14:22:20;5.70;;;3.70;;
23328;SDS011;11836;51.050;3.716;2023-04-21T14:24:45;4.85;;;3.58;;
23328;SDS011;11836;51.050;3.716;2023-04-21T14:27:11;5.00;;;3.80;;
23328;SDS011;11836;51.050;3.716;2023-04-21T14:29:37;5.43;;;3.50;;
23328;SDS011;11836;51.050;3.716;2023-04-21T14:32:02;4.55;;;2.85;;
23328;SDS011;11836;51.050;3.716;2023-04-21T14:34:28;4.28;;;2.95;;
23328;SDS011;11836;51.050;3.716;2023-04-21T14:36:54;3.45;;;2.60;;
23328;SDS011;11836;51.050;3.716;2023-04-21T14:39:20;3.60;;;3.10;;
23328;SDS011;11836;51.050;3.716;2023-04-21T14:41:46;3.85;;;3.05;;
23328;SDS011;11836;51.050;3.716;2023-04-21T14:44:12;4.22;;;3.42;;
23328;SDS011;11836;51.050;3.716;2023-04-21T14:46:38;5.55;;;3.72;;
23328;SDS011;11836;51.050;3.716;2023-04-21T14:49:04;5.07;;;4.57;;
23328;SDS011;11836;51.050;3.716;2023-04-21T14:51:37;5.40;;;3.97;;
23328;SDS011;11836;51.050;3.716;2023-04-21T14:54:05;7.45;;;4.70;;
23328;SDS011;11836;51.050;3.716;2023-04-21T14:56:32;5.28;;;4.35;;
23328;SDS011;11836;51.050;3.716;2023-04-21T14:58:57;4.53;;;3.63;;
23328;SDS011;11836;51.050;3.716;2023-04-21T15:01:23;4.32;;;3.50;;
23328;SDS011;11836;51.050;3.716;2023-04-21T15:03:49;4.32;;;3.55;;
23328;SDS011;11836;51.050;3.716;2023-04-21T15:06:15;5.70;;;3.80;;
23328;SDS011;11836;51.050;3.716;2023-04-21T15:08:40;6.43;;;3.83;;
23328;SDS011;11836;51.050;3.716;2023-04-21T15:11:06;5.38;;;3.88;;
23328;SDS011;11836;51.050;3.716;2023-04-21T15:13:32;5.65;;;4.05;;
23328;SDS011;11836;51.050;3.716;2023-04-21T15:15:58;4.43;;;3.50;;
23328;SDS011;11836;51.050;3.716;2023-04-21T15:18:24;6.05;;;4.00;;
23328;SDS011;11836;51.050;3.716;2023-04-21T15:20:49;4.72;;;3.85;;
23328;SDS011;11836;51.050;3.716;2023-04-21T15:23:15;4.80;;;3.38;;
23328;SDS011;11836;51.050;3.716;2023-04-21T15:25:41;4.38;;;3.20;;
23328;SDS011;11836;51.050;3.716;2023-04-21T15:28:07;5.10;;;3.00;;